createdAt,value
2022-08-05T00:00:16.215Z,52.09
2022-08-05T00:03:24.086Z,52.23
2022-08-05T00:06:29.214Z,52.09
2022-08-05T00:09:30.133Z,52.19
2022-08-05T00:12:29.036Z,52.41
2022-08-05T00:15:55.173Z,52.37
2022-08-05T00:18:44.249Z,52.63
2022-08-05T00:21:42.728Z,52.38
2022-08-05T00:24:44.055Z,52.42
2022-08-05T00:27:42.811Z,52.38
2022-08-05T00:30:41.105Z,52.58
2022-08-05T00:34:53.692Z,52.57
2022-08-05T00:37:12.484Z,52.75
2022-08-05T00:40:14.844Z,52.73
2022-08-05T00:43:15.286Z,52.75
2022-08-05T00:46:12.988Z,52.95
2022-08-05T00:49:15.368Z,52.99
2022-08-05T00:52:15.859Z,52.83
2022-08-05T00:55:15.072Z,52.78
2022-08-05T00:58:11.950Z,52.80
2022-08-05T01:01:09.746Z,52.89
2022-08-05T01:04:13.922Z,52.91
2022-08-05T01:07:13.589Z,52.74
2022-08-05T01:10:11.274Z,52.82
2022-08-05T01:13:13.417Z,52.96
2022-08-05T01:16:26.123Z,52.82
2022-08-05T01:19:46.225Z,52.73
2022-08-05T01:22:57.438Z,52.77
2022-08-05T01:25:54.776Z,52.85
2022-08-05T01:28:50.954Z,52.90
2022-08-05T01:31:48.058Z,52.97
2022-08-05T01:34:44.961Z,53.01
2022-08-05T01:37:44.311Z,52.94
2022-08-05T01:40:42.026Z,52.88
2022-08-05T01:43:38.886Z,52.94
2022-08-05T01:46:42.154Z,53.07
2022-08-05T01:50:00.357Z,53.01
2022-08-05T01:52:58.909Z,52.94
2022-08-05T01:55:55.994Z,53.01
2022-08-05T01:58:54.950Z,53.01
2022-08-05T02:01:51.822Z,52.93
2022-08-05T02:04:52.097Z,52.94
2022-08-05T02:07:59.784Z,53.15
2022-08-05T02:10:57.926Z,53.13
2022-08-05T02:13:54.858Z,53.32
2022-08-05T02:16:52.771Z,53.39
2022-08-05T02:19:51.045Z,53.46
2022-08-05T02:22:47.966Z,53.27
2022-08-05T02:25:50.141Z,53.22
2022-08-05T02:28:47.876Z,53.34
2022-08-05T02:31:46.904Z,53.42
2022-08-05T02:34:44.071Z,53.66
2022-08-05T02:37:54.156Z,53.53
2022-08-05T02:40:52.086Z,53.69
2022-08-05T02:44:06.416Z,53.85
2022-08-05T02:47:05.956Z,53.84
2022-08-05T02:50:02.868Z,54.01
2022-08-05T02:52:59.976Z,53.87
2022-08-05T02:56:01.839Z,53.94
2022-08-05T02:58:59.965Z,53.94
2022-08-05T03:02:01.061Z,53.90
2022-08-05T03:04:58.026Z,54.15
2022-08-05T03:08:06.858Z,54.06
2022-08-05T03:11:54.488Z,54.11
2022-08-05T03:14:28.864Z,54.25
2022-08-05T03:17:26.346Z,54.13
2022-08-05T03:20:25.089Z,54.05
2022-08-05T03:23:24.179Z,54.02
2022-08-05T03:26:31.353Z,54.34
2022-08-05T03:29:45.270Z,54.22
2022-08-05T03:32:47.756Z,54.30
2022-08-05T03:35:44.882Z,54.21
2022-08-05T03:38:42.057Z,54.37
2022-08-05T03:41:46.762Z,54.31
2022-08-05T03:44:43.906Z,54.54
2022-08-05T03:47:42.050Z,54.65
2022-08-05T03:50:38.954Z,54.47
2022-08-05T03:55:53.175Z,54.69
2022-08-05T03:56:53.859Z,54.68
2022-08-05T03:59:54.709Z,54.74
2022-08-05T04:02:58.500Z,54.80
2022-08-05T04:05:56.479Z,54.75
2022-08-05T04:08:55.825Z,54.93
2022-08-05T04:11:52.977Z,55.07
2022-08-05T04:14:49.956Z,55.19
2022-08-05T04:17:56.326Z,55.31
2022-08-05T04:20:57.813Z,55.36
2022-08-05T04:24:06.745Z,55.33
2022-08-05T04:27:06.819Z,55.38
2022-08-05T04:30:04.935Z,55.52
2022-08-05T04:33:03.872Z,55.63
2022-08-05T04:36:15.989Z,55.68
2022-08-05T04:39:18.915Z,55.71
2022-08-05T04:42:15.696Z,55.73
2022-08-05T04:45:22.940Z,55.75
2022-08-05T04:48:28.867Z,55.77
2022-08-05T04:51:30.311Z,55.92
2022-08-05T04:54:31.355Z,56.07
2022-08-05T04:57:37.121Z,56.17
2022-08-05T05:00:34.937Z,56.06
2022-08-05T05:03:41.694Z,56.16
2022-08-05T05:06:51.987Z,56.23
2022-08-05T05:10:07.204Z,56.34
2022-08-05T05:13:05.613Z,56.30
2022-08-05T05:16:07.267Z,56.44
2022-08-05T05:19:18.556Z,56.44
2022-08-05T05:22:24.238Z,56.55
2022-08-05T05:25:40.295Z,56.66
2022-08-05T05:28:42.677Z,56.91
2022-08-05T05:34:36.486Z,56.86
2022-08-05T05:38:09.167Z,57.07
2022-08-05T05:41:16.400Z,56.99
2022-08-05T05:48:07.141Z,57.16
2022-08-05T05:50:50.996Z,57.18
2022-08-05T05:53:57.259Z,57.22
2022-08-05T05:56:47.312Z,57.21
2022-08-05T05:59:44.915Z,57.13
2022-08-05T06:02:41.888Z,57.09
2022-08-05T06:05:38.998Z,57.24
2022-08-05T06:08:35.838Z,57.19
2022-08-05T06:11:39.369Z,57.25
2022-08-05T06:15:05.672Z,57.09
2022-08-05T06:18:05.730Z,57.02
2022-08-05T06:21:18.684Z,57.05
2022-08-05T06:24:31.590Z,57.37
2022-08-05T06:28:10.755Z,57.47
2022-08-05T06:31:10.900Z,57.35
2022-08-05T06:34:14.971Z,57.23
2022-08-05T06:37:12.875Z,57.15
2022-08-05T06:40:32.331Z,57.37
2022-08-05T06:46:50.954Z,57.30
2022-08-05T06:50:05.280Z,57.26
2022-08-05T06:53:11.688Z,57.16
2022-08-05T06:56:26.625Z,57.00
2022-08-05T06:59:23.621Z,56.79
2022-08-05T07:02:22.868Z,56.67
2022-08-05T07:05:22.318Z,56.60
2022-08-05T07:08:25.507Z,56.61
2022-08-05T07:11:25.472Z,56.51
2022-08-05T07:14:33.215Z,56.42
2022-08-05T07:18:09.236Z,56.35
2022-08-05T07:20:48.609Z,56.05
2022-08-05T07:23:50.007Z,56.04
2022-08-05T07:26:48.742Z,56.09
2022-08-05T07:30:22.065Z,56.01
2022-08-05T07:33:05.424Z,55.87
2022-08-05T07:36:20.557Z,55.60
2022-08-05T07:39:24.736Z,55.54
2022-08-05T07:42:38.711Z,55.27
2022-08-05T07:45:57.518Z,55.11
2022-08-05T07:49:10.910Z,55.12
2022-08-05T07:52:06.648Z,54.90
2022-08-05T07:59:38.716Z,54.41
2022-08-05T08:03:14.308Z,54.37
2022-08-05T08:05:53.803Z,54.17
2022-08-05T08:08:41.819Z,54.00
2022-08-05T08:11:49.499Z,53.93
2022-08-05T08:14:52.808Z,53.73
2022-08-05T08:17:52.796Z,53.41
2022-08-05T08:20:59.805Z,53.29
2022-08-05T08:24:04.003Z,53.24
2022-08-05T08:26:09.225Z,53.53
2022-08-05T08:28:59.454Z,53.05
2022-08-05T08:31:33.277Z,53.05
2022-08-05T08:34:05.208Z,52.83
2022-08-05T08:36:48.834Z,52.77
2022-08-05T08:39:25.129Z,52.59
2022-08-05T08:42:34.161Z,52.50
2022-08-05T08:45:44.820Z,52.29
2022-08-05T08:48:41.381Z,51.88
2022-08-05T08:52:04.031Z,51.89
2022-08-05T08:54:39.436Z,51.44
2022-08-05T08:57:17.707Z,51.54
2022-08-05T09:00:31.914Z,51.15
2022-08-05T09:03:44.852Z,51.23
2022-08-05T09:06:46.813Z,50.85
2022-08-05T09:09:46.846Z,50.92
2022-08-05T09:12:53.658Z,50.54
2022-08-05T09:15:54.116Z,50.20
2022-08-05T09:18:52.859Z,50.08
2022-08-05T09:22:23.622Z,50.35
2022-08-05T09:25:13.945Z,49.51
2022-08-05T09:28:34.543Z,49.22
2022-08-05T09:32:40.245Z,49.11
2022-08-05T09:35:04.454Z,48.85
2022-08-05T09:38:12.749Z,48.63
2022-08-05T09:41:17.786Z,48.36
2022-08-05T09:44:07.814Z,48.13
2022-08-05T09:46:58.164Z,48.20
2022-08-05T09:50:00.951Z,48.04
2022-08-05T09:52:35.532Z,47.73
2022-08-05T09:55:58.137Z,47.85
2022-08-05T09:58:26.582Z,47.43
2022-08-05T10:01:32.119Z,47.10
2022-08-05T10:04:49.659Z,46.99
2022-08-05T10:08:11.171Z,46.48
2022-08-05T10:11:15.691Z,46.42
2022-08-05T10:13:49.851Z,46.47
2022-08-05T10:16:52.973Z,45.98
2022-08-05T10:20:03.613Z,45.73
2022-08-05T10:22:37.666Z,45.90
2022-08-05T10:25:24.327Z,45.82
2022-08-05T10:28:19.479Z,45.19
2022-08-05T10:32:54.223Z,45.10
2022-08-05T10:34:41.535Z,45.14
2022-08-05T10:37:26.667Z,45.11
2022-08-05T10:40:27.907Z,44.78
2022-08-05T10:43:13.596Z,44.35
2022-08-05T10:46:13.936Z,44.49
2022-08-05T10:49:16.618Z,44.23
2022-08-05T10:52:16.521Z,44.02
2022-08-05T10:55:16.096Z,44.03
2022-08-05T10:58:18.007Z,44.05
2022-08-05T11:01:28.413Z,43.86
2022-08-05T11:04:36.591Z,43.51
2022-08-05T11:08:01.322Z,43.39
2022-08-05T11:11:01.003Z,43.32
2022-08-05T11:14:04.081Z,43.02
2022-08-05T11:16:57.974Z,43.03
2022-08-05T11:20:16.927Z,42.76
2022-08-05T11:23:17.476Z,42.42
2022-08-05T11:26:15.630Z,42.24
2022-08-05T11:29:25.676Z,41.99
2022-08-05T11:32:23.417Z,42.17
2022-08-05T11:35:26.245Z,41.77
2022-08-05T11:38:37.333Z,41.84
2022-08-05T11:42:01.183Z,41.55
2022-08-05T11:45:03.010Z,41.52
2022-08-05T11:48:03.514Z,41.30
2022-08-05T11:51:00.682Z,41.10
2022-08-05T11:53:58.773Z,41.31
2022-08-05T11:56:56.601Z,41.06
2022-08-05T11:59:59.758Z,41.15
2022-08-05T12:03:08.001Z,40.94
2022-08-05T12:05:54.863Z,40.79
2022-08-05T12:09:04.933Z,40.60
2022-08-05T12:11:56.589Z,40.35
2022-08-05T12:14:57.698Z,40.44
2022-08-05T12:18:04.274Z,40.37
2022-08-05T12:21:07.596Z,40.24
2022-08-05T12:24:17.339Z,39.96
2022-08-05T12:27:09.699Z,40.00
2022-08-05T12:30:23.221Z,40.01
2022-08-05T12:33:36.689Z,40.01
2022-08-05T12:36:35.467Z,39.88
2022-08-05T12:39:23.534Z,39.77
2022-08-05T12:42:25.264Z,39.54
2022-08-05T12:45:22.637Z,39.56
2022-08-05T12:48:39.995Z,39.37
2022-08-05T12:52:10.760Z,39.46
2022-08-05T12:54:40.813Z,39.68
2022-08-05T12:58:50.149Z,39.57
2022-08-05T13:02:00.940Z,39.19
2022-08-05T13:04:07.550Z,39.01
2022-08-05T13:07:10.489Z,38.96
2022-08-05T13:10:05.225Z,39.22
2022-08-05T13:13:03.108Z,38.68
2022-08-05T13:15:52.369Z,38.85
2022-08-05T13:18:38.144Z,38.89
2022-08-05T13:21:38.163Z,39.09
2022-08-05T13:24:57.706Z,38.77
2022-08-05T13:31:20.336Z,38.70
2022-08-05T13:34:38.145Z,38.89
2022-08-05T13:37:34.818Z,38.68
2022-08-05T13:40:35.541Z,38.67
2022-08-05T13:43:45.651Z,38.67
2022-08-05T13:47:02.238Z,38.29
2022-08-05T13:57:02.684Z,38.51
2022-08-05T14:03:11.645Z,38.48
2022-08-05T14:09:29.809Z,38.65
2022-08-05T14:12:32.787Z,38.45
2022-08-05T14:16:07.314Z,38.46
2022-08-05T14:19:04.379Z,38.50
2022-08-05T14:22:17.433Z,38.50
2022-08-05T14:24:56.385Z,38.50
2022-08-05T14:27:47.495Z,38.59
2022-08-05T14:30:39.669Z,38.66
2022-08-05T14:33:59.350Z,38.73
2022-08-05T14:36:38.302Z,38.55
2022-08-05T14:39:24.475Z,38.56
2022-08-05T14:42:21.220Z,38.44
2022-08-05T14:44:57.443Z,38.50
2022-08-05T14:48:03.269Z,38.71
2022-08-05T14:50:57.795Z,38.62
2022-08-05T14:54:25.833Z,38.51
2022-08-05T15:00:58.238Z,38.50
2022-08-05T15:03:57.573Z,38.64
2022-08-05T15:06:54.420Z,38.57
2022-08-05T15:09:53.998Z,38.54
2022-08-05T15:13:03.297Z,38.56
2022-08-05T15:18:56.058Z,38.55
2022-08-05T15:21:37.429Z,38.48
2022-08-05T15:24:31.347Z,38.58
2022-08-05T15:27:25.751Z,38.67
2022-08-05T15:30:02.328Z,38.76
2022-08-05T15:32:49.436Z,38.66
2022-08-05T15:35:59.121Z,38.59
2022-08-05T15:38:49.345Z,38.55
2022-08-05T15:42:50.114Z,38.77
2022-08-05T15:45:11.933Z,38.46
2022-08-05T15:47:47.387Z,38.48
2022-08-05T15:50:45.592Z,38.76
2022-08-05T15:53:38.200Z,38.74
2022-08-05T15:56:44.453Z,38.80
2022-08-05T15:59:23.477Z,38.55
2022-08-05T16:02:19.682Z,38.94
2022-08-05T16:05:23.272Z,38.99
2022-08-05T16:08:16.083Z,39.07
2022-08-05T16:11:14.638Z,39.04
2022-08-05T16:14:17.230Z,38.97
2022-08-05T16:17:07.828Z,39.02
2022-08-05T16:20:11.585Z,38.73
2022-08-05T16:23:04.292Z,38.82
2022-08-05T16:26:09.645Z,38.74
2022-08-05T16:34:10.196Z,38.72
2022-08-05T16:36:44.634Z,38.80
2022-08-05T16:40:05.735Z,38.99
2022-08-05T16:47:04.924Z,39.06
2022-08-05T16:50:01.406Z,38.90
2022-08-05T16:52:57.378Z,39.03
2022-08-05T16:56:02.665Z,39.11
2022-08-05T16:59:19.314Z,39.20
2022-08-05T17:07:01.739Z,39.24
2022-08-05T17:09:38.945Z,39.21
2022-08-05T17:22:27.556Z,39.56
2022-08-05T17:26:04.771Z,39.49
2022-08-05T17:33:38.901Z,40.06
2022-08-05T17:36:41.138Z,40.33
2022-08-05T17:45:00.358Z,40.61
2022-08-05T17:48:39.209Z,40.77
2022-08-05T17:51:40.125Z,40.87
2022-08-05T17:54:23.665Z,40.93
2022-08-05T18:00:28.621Z,41.02
2022-08-05T18:08:18.507Z,41.30
2022-08-05T18:19:17.808Z,41.95
2022-08-05T18:36:28.629Z,42.73
2022-08-05T18:40:33.641Z,42.79
2022-08-05T18:43:49.396Z,42.87
2022-08-05T18:46:25.886Z,43.15
2022-08-05T18:50:45.117Z,43.29
2022-08-05T18:53:50.325Z,43.33
2022-08-05T18:56:41.432Z,43.58
2022-08-05T19:00:13.357Z,43.56
2022-08-05T19:03:53.453Z,43.63
2022-08-05T19:07:12.577Z,43.74
2022-08-05T19:10:32.235Z,43.87
2022-08-05T19:13:30.654Z,44.04
2022-08-05T19:16:51.749Z,44.12
2022-08-05T19:19:51.939Z,44.28
2022-08-05T19:24:04.461Z,44.35
2022-08-05T19:26:55.772Z,44.61
2022-08-05T19:30:20.565Z,44.48
2022-08-05T19:33:56.481Z,44.98
2022-08-05T19:37:19.490Z,44.85
2022-08-05T19:40:37.942Z,44.96
2022-08-05T19:44:05.772Z,45.00
2022-08-05T19:47:25.335Z,45.12
2022-08-05T19:50:45.983Z,45.25
2022-08-05T19:54:21.969Z,45.34
2022-08-05T19:58:07.039Z,45.58
2022-08-05T20:01:29.665Z,45.73
2022-08-05T20:05:05.043Z,45.71
2022-08-05T20:08:28.748Z,45.87
2022-08-05T20:11:54.264Z,45.96
2022-08-05T20:15:12.130Z,46.12
2022-08-05T20:18:35.863Z,46.42
2022-08-05T20:21:54.385Z,46.56
2022-08-05T20:25:33.807Z,46.54
2022-08-05T20:29:00.748Z,46.61
2022-08-05T20:32:18.555Z,46.82
2022-08-05T20:40:04.498Z,47.03
2022-08-05T20:44:30.707Z,47.03
2022-08-05T20:47:32.025Z,47.24
2022-08-05T20:50:48.368Z,47.36
2022-08-05T20:53:42.832Z,47.48
2022-08-05T20:57:43.893Z,47.69
2022-08-05T21:00:54.581Z,47.72
2022-08-05T21:03:48.122Z,47.97
2022-08-05T21:13:10.371Z,48.39
2022-08-05T21:34:31.692Z,49.42
2022-08-05T21:39:26.273Z,49.31
2022-08-05T21:51:25.179Z,49.47
2022-08-05T23:31:17.213Z,52.00
